Time;durP1;ratioP1;P1;durP2;ratioP2;P2;SDS_P1;SDS_P2;PMS_P1;PMS_P2;Temp;Humidity;BMP_temperature;BMP_pressure;BME280_temperature;BME280_humidity;BME280_pressure;Samples;Min_cycle;Max_cycle;Signal;HPM_P1;HPM_P2
2022/04/24 00:01:39;;;;;;;3.27;2.20;;;;;;;18.03;43.44;100143.09;1773282;80;21373;-92
2022/04/24 00:04:05;;;;;;;2.77;2.22;;;;;;;18.03;43.43;100135.66;1773231;80;21059;-92
2022/04/24 00:06:34;;;;;;;3.83;2.62;;;;;;;18.03;43.41;100138.41;1772847;80;20881;-92
2022/04/24 00:09:01;;;;;;;4.33;2.47;;;;;;;18.03;43.40;100141.16;1777230;80;20972;-92
2022/04/24 00:11:27;;;;;;;4.00;2.33;;;;;;;18.04;43.39;100152.95;1758382;80;20948;-92
2022/04/24 00:13:53;;;;;;;4.30;2.50;;;;;;;18.02;43.40;100153.29;1777982;80;20897;-92
2022/04/24 00:16:19;;;;;;;3.15;2.27;;;;;;;18.03;43.40;100153.55;1777966;80;21341;-92
2022/04/24 00:18:51;;;;;;;4.08;2.60;;;;;;;18.03;43.40;100159.61;1777689;80;20972;-91
2022/04/24 00:21:17;;;;;;;3.90;2.30;;;;;;;18.03;43.39;100157.67;1777840;80;20882;-91
2022/04/24 00:23:43;;;;;;;4.47;2.25;;;;;;;18.03;43.38;100157.67;1777745;80;20901;-91
2022/04/24 00:26:10;;;;;;;3.95;2.22;;;;;;;18.04;43.38;100159.84;1778045;80;20971;-91
2022/04/24 00:28:36;;;;;;;4.62;2.50;;;;;;;18.02;43.38;100153.85;1777867;80;21350;-91
2022/04/24 00:31:02;;;;;;;3.65;2.45;;;;;;;18.03;43.37;100155.48;1778062;80;21578;-91
2022/04/24 00:33:28;;;;;;;2.98;2.33;;;;;;;18.03;43.38;100156.30;1778208;80;20885;-91
2022/04/24 00:35:54;;;;;;;3.00;2.40;;;;;;;18.02;43.39;100156.05;1777646;80;20845;-92
2022/04/24 00:38:20;;;;;;;2.70;2.12;;;;;;;18.03;43.37;100154.11;1778018;80;20869;-91
2022/04/24 00:40:47;;;;;;;2.58;2.30;;;;;;;18.03;43.39;100152.73;1778136;80;21265;-91
2022/04/24 00:43:14;;;;;;;4.20;2.60;;;;;;;18.02;43.37;100151.10;1777871;80;20869;-91
2022/04/24 00:45:40;;;;;;;3.45;2.67;;;;;;;18.02;43.39;100157.98;1778027;79;20928;-92
2022/04/24 00:48:07;;;;;;;3.58;2.33;;;;;;;18.01;43.40;100161.30;1778158;79;20956;-91
2022/04/24 00:50:34;;;;;;;4.75;2.45;;;;;;;18.02;43.40;100158.80;1777855;80;21294;-92
2022/04/24 00:53:00;;;;;;;3.95;2.50;;;;;;;18.01;43.41;100166.80;1777801;80;21165;-92
2022/04/24 00:55:26;;;;;;;3.60;2.58;;;;;;;18.01;43.41;100162.67;1778094;80;21436;-91
2022/04/24 00:57:52;;;;;;;4.25;3.12;;;;;;;18.01;43.45;100160.48;1777605;80;20838;-91
2022/04/24 01:00:19;;;;;;;3.75;2.55;;;;;;;18.01;43.43;100163.23;1777690;80;20931;-91
2022/04/24 01:02:45;;;;;;;4.70;2.62;;;;;;;18.01;43.46;100167.36;1778148;80;20960;-91
2022/04/24 01:05:11;;;;;;;4.08;2.52;;;;;;;18.01;43.42;100161.30;1777802;80;20932;-91
2022/04/24 01:07:37;;;;;;;3.12;2.35;;;;;;;18.01;43.42;100159.92;1777239;80;20905;-91
2022/04/24 01:10:09;;;;;;;4.33;2.70;;;;;;;18.00;43.45;100166.55;1772770;80;20882;-91
2022/04/24 01:12:35;;;;;;;3.35;2.45;;;;;;;18.01;43.46;100157.73;1772713;80;20834;-91
2022/04/24 01:15:02;;;;;;;3.58;2.80;;;;;;;18.01;43.45;100160.48;1773101;80;20849;-91
2022/04/24 01:17:28;;;;;;;3.65;2.77;;;;;;;18.00;43.45;100162.41;1772836;80;21252;-92
2022/04/24 01:19:54;;;;;;;3.77;2.50;;;;;;;18.00;43.46;100159.66;1753340;81;20845;-92
2022/04/24 01:22:20;;;;;;;4.25;2.62;;;;;;;18.01;43.45;100157.73;1772779;80;21376;-91
2022/04/24 01:24:46;;;;;;;4.17;3.27;;;;;;;17.99;43.44;100155.28;1772860;80;20968;-92
2022/04/24 01:27:12;;;;;;;3.00;2.40;;;;;;;18.00;43.42;100161.04;1772752;80;20889;-92
2022/04/24 01:29:38;;;;;;;3.27;2.65;;;;;;;18.01;43.45;100168.73;1772723;80;21808;-91
2022/04/24 01:32:06;;;;;;;3.58;2.55;;;;;;;18.00;43.47;100165.17;1759429;81;20909;-92
2022/04/24 01:34:32;;;;;;;3.58;2.77;;;;;;;18.00;43.47;100161.59;1772426;80;20929;-91
2022/04/24 01:36:58;;;;;;;4.58;3.10;;;;;;;17.99;43.48;100164.91;1772770;80;20960;-91
2022/04/24 01:39:24;;;;;;;3.98;2.90;;;;;;;18.00;43.48;100173.42;1773125;80;21012;-91
2022/04/24 01:41:51;;;;;;;4.83;2.65;;;;;;;18.00;43.48;100169.86;1772753;80;21417;-91
2022/04/24 01:44:17;;;;;;;5.42;3.05;;;;;;;17.99;43.46;100169.04;1772904;80;21007;-92
2022/04/24 01:46:43;;;;;;;4.62;3.02;;;;;;;17.99;43.48;100164.91;1772987;80;20858;-91
2022/04/24 01:49:10;;;;;;;4.05;2.70;;;;;;;18.00;43.47;100173.42;1772636;80;20921;-91
2022/04/24 01:51:37;;;;;;;3.72;2.80;;;;;;;18.00;43.48;100167.10;1772798;80;20908;-92
2022/04/24 01:54:03;;;;;;;3.15;2.45;;;;;;;18.00;43.48;100180.30;1772910;80;21286;-92
2022/04/24 01:56:29;;;;;;;4.75;2.75;;;;;;;17.99;43.48;100174.55;1772397;80;20917;-92
2022/04/24 01:58:55;;;;;;;4.30;2.80;;;;;;;18.00;43.48;100178.11;1772913;80;20865;-91
2022/04/24 02:01:21;;;;;;;3.90;2.40;;;;;;;18.01;43.49;100176.99;1772897;81;21180;-92
2022/04/24 02:03:47;;;;;;;4.30;2.80;;;;;;;17.99;43.50;100176.52;1772771;80;20949;-91
2022/04/24 02:06:13;;;;;;;4.08;2.90;;;;;;;18.00;43.52;100182.24;1772608;80;21814;-91
2022/04/24 02:08:39;;;;;;;4.30;2.95;;;;;;;18.01;43.50;100186.63;1774307;80;20909;-92
2022/04/24 02:11:06;;;;;;;3.85;2.77;;;;;;;18.00;43.49;100179.48;1775648;80;21025;-91
2022/04/24 02:13:33;;;;;;;3.92;2.90;;;;;;;17.99;43.50;100180.05;1775777;80;20881;-92
2022/04/24 02:15:59;;;;;;;5.78;2.98;;;;;;;18.00;43.50;100184.44;1775733;80;20846;-91
2022/04/24 02:18:25;;;;;;;3.85;2.83;;;;;;;17.99;43.51;100182.80;1775587;80;21142;-91
2022/04/24 02:20:51;;;;;;;4.83;3.02;;;;;;;18.00;43.53;100185.00;1775802;80;20833;-92
2022/04/24 02:23:17;;;;;;;4.05;3.25;;;;;;;17.99;43.54;100188.30;1775860;80;20956;-92
2022/04/24 02:25:43;;;;;;;4.70;3.10;;;;;;;17.99;43.54;100186.14;1775553;80;21353;-91
2022/04/24 02:28:09;;;;;;;5.42;2.98;;;;;;;18.00;43.55;100189.94;1775920;80;20874;-92
2022/04/24 02:30:35;;;;;;;4.25;3.20;;;;;;;17.99;43.54;100186.93;1775904;80;21289;-91
2022/04/24 02:33:01;;;;;;;5.62;3.17;;;;;;;17.99;43.55;100185.55;1775593;80;20913;-92
2022/04/24 02:35:30;;;;;;;4.62;3.05;;;;;;;18.00;43.55;100189.13;1775778;80;20885;-91
2022/04/24 02:37:56;;;;;;;3.62;2.92;;;;;;;18.00;43.55;100194.06;1775918;80;20925;-91
2022/04/24 02:40:22;;;;;;;5.20;2.98;;;;;;;18.00;43.55;100196.82;1775778;80;20932;-91
2022/04/24 02:42:52;;;;;;;4.90;3.25;;;;;;;18.00;43.56;100198.20;1775985;80;21151;-92
2022/04/24 02:45:19;;;;;;;3.87;3.08;;;;;;;18.01;43.56;100204.52;1775892;80;20905;-91
2022/04/24 02:47:45;;;;;;;4.37;3.10;;;;;;;18.00;43.57;100208.39;1775627;80;20901;-91
2022/04/24 02:50:11;;;;;;;5.03;2.98;;;;;;;17.99;43.56;100208.95;1775585;80;20882;-91
2022/04/24 02:52:51;;;;;;;4.20;3.00;;;;;;;17.99;43.58;100207.57;1775976;80;20862;-91
2022/04/24 02:55:18;;;;;;;3.80;2.95;;;;;;;17.99;43.58;100213.08;1775730;80;21128;-91
2022/04/24 02:57:44;;;;;;;4.65;3.17;;;;;;;17.99;43.56;100218.58;1775488;80;21341;-92
2022/04/24 03:00:12;;;;;;;4.80;3.22;;;;;;;17.98;43.58;100220.30;1775895;80;20909;-92
2022/04/24 03:02:42;;;;;;;6.35;3.12;;;;;;;18.00;43.57;100223.53;1775358;80;21338;-91
2022/04/24 03:05:13;;;;;;;3.35;2.95;;;;;;;17.99;43.58;100224.67;1775805;80;20897;-91
2022/04/24 03:07:39;;;;;;;5.08;3.45;;;;;;;17.98;43.59;100227.17;1773131;80;21089;-92
2022/04/24 03:10:08;;;;;;;5.08;3.55;;;;;;;17.98;43.58;100227.98;1772828;80;20980;-91
2022/04/24 03:12:34;;;;;;;4.15;3.15;;;;;;;17.98;43.58;100229.92;1773039;81;21346;-91
2022/04/24 03:15:02;;;;;;;4.87;3.33;;;;;;;17.98;43.57;100236.25;1772855;80;20929;-91
2022/04/24 03:17:30;;;;;;;5.67;3.50;;;;;;;17.98;43.59;100238.19;1772865;81;21330;-91
2022/04/24 03:19:56;;;;;;;4.20;3.00;;;;;;;17.98;43.58;100243.13;1773262;81;21248;-92
2022/04/24 03:22:22;;;;;;;4.55;2.85;;;;;;;17.99;43.60;100245.32;1773160;80;21349;-91
2022/04/24 03:24:48;;;;;;;5.47;3.30;;;;;;;17.99;43.60;100249.45;1772943;80;20890;-91
2022/04/24 03:27:14;;;;;;;5.83;2.77;;;;;;;17.99;43.58;100250.83;1772852;80;21345;-91
2022/04/24 03:29:40;;;;;;;4.70;2.92;;;;;;;17.97;43.58;100249.75;1773119;80;20960;-91
2022/04/24 03:32:08;;;;;;;3.85;2.98;;;;;;;17.98;43.57;100257.45;1772940;80;21139;-91
2022/04/24 03:34:35;;;;;;;4.15;2.87;;;;;;;17.98;43.57;100251.94;1773064;81;20948;-91
2022/04/24 03:37:01;;;;;;;4.40;3.37;;;;;;;17.97;43.57;100255.26;1772822;80;21007;-91
2022/04/24 03:39:28;;;;;;;4.50;3.20;;;;;;;17.97;43.56;100259.39;1773018;81;20925;-91
2022/04/24 03:41:54;;;;;;;5.05;2.83;;;;;;;17.97;43.58;100260.76;1773069;80;21393;-91
2022/04/24 03:44:20;;;;;;;4.15;3.25;;;;;;;17.97;43.57;100267.64;1773007;81;21240;-91
2022/04/24 03:46:52;;;;;;;6.40;3.00;;;;;;;17.97;43.56;100264.07;1769506;81;20890;-91
2022/04/24 03:49:18;;;;;;;5.37;2.92;;;;;;;17.97;43.56;100265.45;1772791;80;20937;-91
2022/04/24 03:51:44;;;;;;;3.77;2.90;;;;;;;17.97;43.55;100263.52;1773147;81;20877;-91
2022/04/24 03:54:10;;;;;;;3.98;2.75;;;;;;;17.97;43.54;100264.07;1773082;80;21440;-91
2022/04/24 03:56:36;;;;;;;7.15;3.27;;;;;;;17.96;43.52;100268.76;1773028;80;21094;-91
2022/04/24 03:59:02;;;;;;;5.20;3.05;;;;;;;17.97;43.50;100270.95;1773234;81;21416;-91
2022/04/24 04:01:28;;;;;;;6.33;3.25;;;;;;;17.97;43.52;100270.39;1772860;80;20885;-91
2022/04/24 04:03:56;;;;;;;5.10;2.90;;;;;;;17.95;43.50;100279.52;1772980;80;20857;-91
2022/04/24 04:06:22;;;;;;;4.85;2.98;;;;;;;17.96;43.52;100278.39;1773035;80;20929;-91
2022/04/24 04:08:48;;;;;;;3.62;2.70;;;;;;;17.98;43.50;100280.84;1773422;80;21156;-92
2022/04/24 04:11:14;;;;;;;5.22;3.35;;;;;;;17.96;43.50;100284.45;1775304;80;20870;-92
2022/04/24 04:13:40;;;;;;;3.52;2.72;;;;;;;17.96;43.51;100276.20;1772030;81;20885;-91
2022/04/24 04:16:06;;;;;;;3.10;2.65;;;;;;;17.97;43.50;100278.66;1772825;80;20984;-92
2022/04/24 04:18:32;;;;;;;5.15;3.30;;;;;;;17.97;43.48;100281.96;1753628;81;20890;-91
2022/04/24 04:20:59;;;;;;;3.70;2.80;;;;;;;17.96;43.50;100280.33;1772741;80;21209;-91
2022/04/24 04:23:25;;;;;;;3.90;2.72;;;;;;;17.97;43.50;100276.45;1772715;80;20980;-91
2022/04/24 04:25:51;;;;;;;3.85;2.90;;;;;;;17.96;43.49;100276.20;1772672;80;21270;-91
2022/04/24 04:28:23;;;;;;;5.15;3.15;;;;;;;17.96;43.48;100282.52;1772955;80;20846;-91
2022/04/24 04:30:49;;;;;;;4.30;3.08;;;;;;;17.96;43.48;100284.45;1772713;80;20913;-91
2022/04/24 04:33:15;;;;;;;8.58;3.50;;;;;;;17.95;43.48;100278.14;1772785;80;21206;-92
2022/04/24 04:35:41;;;;;;;4.97;2.90;;;;;;;17.96;43.46;100288.02;1772942;80;21609;-91
2022/04/24 04:38:07;;;;;;;3.55;2.98;;;;;;;17.97;43.45;100290.22;1772823;80;20909;-91
2022/04/24 04:40:33;;;;;;;4.67;3.00;;;;;;;17.96;43.46;100300.41;1772842;80;21393;-92
2022/04/24 04:43:00;;;;;;;3.95;2.95;;;;;;;17.96;43.46;100303.16;1773084;79;20873;-91
2022/04/24 04:45:26;;;;;;;4.55;3.20;;;;;;;17.96;43.48;100301.79;1772734;80;21221;-92
2022/04/24 04:47:52;;;;;;;3.92;2.87;;;;;;;17.97;43.46;100308.11;1772691;80;20869;-91
2022/04/24 04:50:18;;;;;;;3.87;2.95;;;;;;;17.97;43.44;100303.98;1773146;80;20908;-91
2022/04/24 04:52:44;;;;;;;4.05;2.92;;;;;;;17.97;43.44;100308.92;1772712;81;20928;-91
2022/04/24 04:55:10;;;;;;;5.50;3.00;;;;;;;17.96;43.45;100309.23;1773055;80;20865;-91
2022/04/24 04:57:36;;;;;;;5.08;3.10;;;;;;;17.97;43.42;100314.98;1772822;80;21764;-91
2022/04/24 05:00:12;;;;;;;3.92;2.85;;;;;;;17.97;43.41;100319.94;1772573;80;20920;-91
2022/04/24 05:02:38;;;;;;;3.17;2.67;;;;;;;17.97;43.41;100325.44;1772899;80;21777;-91
2022/04/24 05:05:06;;;;;;;4.80;3.02;;;;;;;17.97;43.40;100325.44;1773033;81;21401;-91
2022/04/24 05:07:32;;;;;;;3.98;2.95;;;;;;;17.98;43.39;100333.14;1772814;81;20858;-92
2022/04/24 05:09:58;;;;;;;3.92;2.87;;;;;;;17.98;43.37;100329.01;1773095;80;21240;-91
2022/04/24 05:12:27;;;;;;;5.20;2.90;;;;;;;17.97;43.35;100329.57;1775354;80;20881;-91
2022/04/24 05:14:53;;;;;;;3.67;2.80;;;;;;;17.99;43.35;100332.02;1778138;80;21353;-91
2022/04/24 05:17:20;;;;;;;5.80;3.10;;;;;;;17.99;43.34;100338.31;1777868;80;21480;-92
2022/04/24 05:19:46;;;;;;;3.65;2.70;;;;;;;17.99;43.34;100337.53;1778233;80;21007;-91
2022/04/24 05:22:12;;;;;;;5.03;3.10;;;;;;;17.98;43.34;100333.95;1777881;79;21019;-92
2022/04/24 05:24:38;;;;;;;5.17;2.98;;;;;;;17.99;43.33;100337.53;1777893;79;21357;-91
2022/04/24 05:27:05;;;;;;;4.47;3.10;;;;;;;17.99;43.33;100336.94;1778016;80;20799;-92
2022/04/24 05:29:32;;;;;;;3.62;2.58;;;;;;;17.99;43.32;100338.31;1778059;80;20917;-91
2022/04/24 05:31:58;;;;;;;4.85;3.20;;;;;;;18.00;43.31;100344.08;1778153;80;20874;-92
2022/04/24 05:34:24;;;;;;;5.22;3.15;;;;;;;18.00;43.29;100335.82;1778090;80;21215;-92
2022/04/24 05:36:50;;;;;;;4.62;3.20;;;;;;;18.01;43.28;100338.02;1777557;80;20932;-92
2022/04/24 05:39:16;;;;;;;4.42;3.20;;;;;;;18.01;43.28;100339.39;1778124;80;20951;-92
2022/04/24 05:41:42;;;;;;;4.00;3.05;;;;;;;18.01;43.27;100341.59;1778171;79;20885;-91
2022/04/24 05:44:08;;;;;;;4.87;3.08;;;;;;;18.01;43.28;100336.08;1777764;80;20957;-92
2022/04/24 05:46:34;;;;;;;4.05;3.05;;;;;;;18.02;43.27;100335.52;1778238;80;21014;-91
2022/04/24 05:49:02;;;;;;;5.28;3.30;;;;;;;18.02;43.27;100343.22;1777926;80;21440;-92
2022/04/24 05:51:29;;;;;;;3.98;2.90;;;;;;;18.01;43.26;100340.20;1777927;80;20920;-91
2022/04/24 05:53:55;;;;;;;3.85;3.10;;;;;;;18.02;43.25;100345.97;1777850;79;21381;-91
2022/04/24 05:56:21;;;;;;;3.87;3.15;;;;;;;18.03;43.24;100349.55;1777968;79;21055;-92
2022/04/24 05:58:53;;;;;;;4.53;3.15;;;;;;;18.03;43.25;100352.30;1777925;80;21144;-91
2022/04/24 06:01:19;;;;;;;4.78;3.17;;;;;;;18.02;43.25;100350.09;1777789;80;20921;-92
2022/04/24 06:03:45;;;;;;;4.97;3.40;;;;;;;18.02;43.25;100348.72;1778010;80;20944;-91
2022/04/24 06:06:11;;;;;;;7.47;3.52;;;;;;;18.02;43.23;100342.40;1758579;80;21342;-91
2022/04/24 06:08:37;;;;;;;3.05;2.60;;;;;;;18.03;43.24;100342.66;1778147;80;20924;-91
2022/04/24 06:11:03;;;;;;;4.42;2.83;;;;;;;18.03;43.24;100340.73;1778051;80;21288;-92
2022/04/24 06:13:29;;;;;;;4.58;3.10;;;;;;;18.03;43.22;100344.86;1777798;80;21396;-92
2022/04/24 06:15:57;;;;;;;4.37;3.27;;;;;;;18.03;43.23;100344.86;1778133;80;21314;-92
2022/04/24 06:18:25;;;;;;;4.70;3.30;;;;;;;18.04;43.21;100341.52;1778045;80;21318;-92
2022/04/24 06:20:51;;;;;;;4.50;2.98;;;;;;;18.04;43.21;100345.64;1777851;80;20932;-92
2022/04/24 06:23:17;;;;;;;4.10;2.98;;;;;;;18.04;43.21;100343.70;1777949;80;20964;-92
2022/04/24 06:25:43;;;;;;;3.62;2.75;;;;;;;18.04;43.22;100343.70;1778082;80;20948;-91
2022/04/24 06:28:09;;;;;;;4.83;3.35;;;;;;;18.05;43.24;100339.84;1777716;80;22370;-91
2022/04/24 06:30:40;;;;;;;4.17;2.98;;;;;;;18.04;43.21;100339.58;1778369;79;20963;-90
2022/04/24 06:33:09;;;;;;;5.47;3.05;;;;;;;18.05;43.21;100341.21;1777670;80;20980;-91
2022/04/24 06:35:35;;;;;;;3.62;3.15;;;;;;;18.05;43.21;100337.08;1777816;80;21458;-92
2022/04/24 06:38:01;;;;;;;4.47;3.02;;;;;;;18.06;43.20;100341.47;1777790;80;20956;-91
2022/04/24 06:40:27;;;;;;;4.58;3.30;;;;;;;18.06;43.20;100338.72;1778250;80;20929;-92
2022/04/24 06:42:59;;;;;;;4.03;3.08;;;;;;;18.08;43.19;100342.52;1777610;80;21309;-92
2022/04/24 06:45:28;;;;;;;3.85;3.30;;;;;;;18.08;43.19;100345.27;1778033;80;20866;-92
2022/04/24 06:47:55;;;;;;;5.05;3.25;;;;;;;18.08;43.20;100343.89;1777695;80;21131;-91
2022/04/24 06:50:22;;;;;;;4.47;3.25;;;;;;;18.08;43.19;100346.64;1778043;80;20790;-92
2022/04/24 06:53:01;;;;;;;4.92;3.20;;;;;;;18.07;43.20;100349.17;1777831;80;21310;-92
2022/04/24 06:55:28;;;;;;;4.78;3.08;;;;;;;18.07;43.19;100349.17;1747156;81;20920;-92
2022/04/24 06:57:55;;;;;;;4.30;3.10;;;;;;;18.08;43.17;100345.27;1775175;80;21377;-91
2022/04/24 07:00:22;;;;;;;5.65;3.45;;;;;;;18.09;43.20;100358.73;1778292;79;21213;-92
2022/04/24 07:02:48;;;;;;;4.50;3.17;;;;;;;18.09;43.17;100353.78;1777889;80;20924;-92
2022/04/24 07:05:14;;;;;;;4.70;3.55;;;;;;;18.09;43.16;100353.22;1777765;80;20952;-91
2022/04/24 07:07:41;;;;;;;3.92;2.80;;;;;;;18.09;43.16;100357.36;1778080;80;20940;-92
2022/04/24 07:10:09;;;;;;;4.53;2.83;;;;;;;18.10;43.17;100354.05;1777781;80;20881;-91
2022/04/24 07:12:47;;;;;;;4.62;2.85;;;;;;;18.11;43.15;100355.68;1775946;80;21129;-91
2022/04/24 07:15:14;;;;;;;4.10;3.30;;;;;;;18.12;43.17;100354.56;1772594;80;21314;-92
2022/04/24 07:17:42;;;;;;;4.90;3.37;;;;;;;18.11;43.14;100348.80;1772958;81;20877;-92
2022/04/24 07:20:10;;;;;;;4.50;3.30;;;;;;;18.12;43.15;100346.30;1772942;81;20886;-92
2022/04/24 07:23:05;;;;;;;4.42;3.10;;;;;;;18.12;43.14;100344.33;1772831;81;20968;-92
2022/04/24 07:25:40;;;;;;;3.55;3.00;;;;;;;18.12;43.13;100341.58;1771488;80;21181;-91
2022/04/24 07:28:09;;;;;;;4.70;3.40;;;;;;;18.13;43.13;100341.02;1772783;81;21357;-92
2022/04/24 07:30:35;;;;;;;4.55;2.77;;;;;;;18.13;43.12;100341.02;1772746;80;21266;-91
2022/04/24 07:33:01;;;;;;;4.60;3.12;;;;;;;18.12;43.11;100340.20;1773059;80;20877;-92
2022/04/24 07:35:30;;;;;;;5.17;3.30;;;;;;;18.13;43.12;100344.59;1772889;80;20838;-92
2022/04/24 07:37:57;;;;;;;5.33;4.00;;;;;;;18.14;43.11;100348.16;1755377;81;40475;-92
2022/04/24 07:40:28;;;;;;;4.30;3.22;;;;;;;18.14;43.12;100355.86;1755630;81;20865;-92
2022/04/24 07:42:57;;;;;;;5.30;3.33;;;;;;;18.14;43.11;100352.30;1773101;80;21390;-91
2022/04/24 07:45:29;;;;;;;5.35;3.20;;;;;;;18.15;43.11;100358.87;1772994;80;20909;-92
2022/04/24 07:47:55;;;;;;;4.58;2.90;;;;;;;18.15;43.12;100356.69;1773072;80;20921;-92
2022/04/24 07:50:23;;;;;;;4.90;3.40;;;;;;;18.15;43.10;100353.37;1772638;80;21716;-92
2022/04/24 07:52:50;;;;;;;4.62;3.52;;;;;;;18.16;43.11;100355.56;1766353;81;20898;-92
2022/04/24 07:55:19;;;;;;;4.55;3.00;;;;;;;18.16;43.11;100359.70;1773147;80;20972;-91
2022/04/24 07:57:46;;;;;;;4.15;3.35;;;;;;;18.16;43.11;100359.10;1772672;80;20926;-92
2022/04/24 08:00:21;;;;;;;5.22;3.52;;;;;;;18.17;43.11;100358.55;1773178;81;21370;-91
2022/04/24 08:03:04;;;;;;;3.60;2.95;;;;;;;18.17;43.10;100355.80;1772424;80;21057;-92
2022/04/24 08:05:47;;;;;;;5.37;3.12;;;;;;;18.17;43.10;100359.92;1741777;82;20896;-92
2022/04/24 08:08:19;;;;;;;6.85;4.22;;;;;;;18.17;43.11;100357.16;1742261;82;20882;-92
2022/04/24 08:10:51;;;;;;;4.60;3.45;;;;;;;18.17;43.09;100362.67;1752628;81;20917;-92
2022/04/24 08:13:18;;;;;;;5.37;3.27;;;;;;;18.17;43.08;100356.61;1775268;80;20893;-91
2022/04/24 08:15:44;;;;;;;4.33;3.33;;;;;;;18.17;43.08;100359.36;1777885;80;21469;-92
2022/04/24 08:18:10;;;;;;;3.98;3.50;;;;;;;18.17;43.10;100355.80;1778185;80;21196;-92
2022/04/24 08:20:37;;;;;;;5.33;3.15;;;;;;;18.18;43.08;100350.55;1777908;80;20956;-92
2022/04/24 08:23:03;;;;;;;4.87;3.15;;;;;;;18.18;43.09;100345.85;1777950;80;20874;-92
2022/04/24 08:25:34;;;;;;;4.35;3.42;;;;;;;18.18;43.09;100343.66;1778218;80;20889;-92
2022/04/24 08:27:58;;;;;;;3.75;3.00;;;;;;;18.18;43.09;100337.59;1758486;80;21719;-92
2022/04/24 08:30:24;;;;;;;4.33;3.50;;;;;;;18.19;43.09;100339.23;1778059;80;20897;-92
2022/04/24 08:32:51;;;;;;;4.60;3.30;;;;;;;18.20;43.08;100333.95;1778057;80;21325;-92
2022/04/24 08:35:19;;;;;;;3.60;3.00;;;;;;;18.20;43.09;100323.52;1777617;80;20952;-92
2022/04/24 08:37:46;;;;;;;4.25;2.92;;;;;;;18.21;43.10;100331.45;1778250;80;20960;-92
2022/04/24 08:40:14;;;;;;;4.17;3.30;;;;;;;18.22;43.08;100333.64;1778006;80;21262;-91
2022/04/24 08:42:40;;;;;;;3.77;3.08;;;;;;;18.22;43.10;100329.52;1777745;79;20838;-92
2022/04/24 08:45:15;;;;;;;3.80;3.10;;;;;;;18.21;43.07;100330.63;1778178;80;20916;-91
2022/04/24 08:47:42;;;;;;;3.90;3.27;;;;;;;18.22;43.08;100327.58;1778394;80;21311;-92
2022/04/24 08:50:09;;;;;;;4.78;3.20;;;;;;;18.23;43.07;100332.53;1777753;80;21417;-92
2022/04/24 08:52:35;;;;;;;4.35;3.08;;;;;;;18.23;43.07;100325.64;1778086;80;21346;-92
2022/04/24 08:55:03;;;;;;;4.03;3.12;;;;;;;18.23;43.07;100322.89;1778271;80;21347;-92
2022/04/24 08:57:32;;;;;;;3.72;2.92;;;;;;;18.23;43.08;100318.77;1777825;80;21318;-92
2022/04/24 08:59:59;;;;;;;3.50;3.02;;;;;;;18.24;43.08;100316.27;1778134;80;20885;-92
2022/04/24 09:02:25;;;;;;;4.90;3.15;;;;;;;18.22;43.07;100311.06;1778015;80;20925;-91
2022/04/24 09:04:55;;;;;;;5.67;3.45;;;;;;;18.24;43.09;100314.33;1777971;80;21217;-92
2022/04/24 09:07:22;;;;;;;4.92;3.22;;;;;;;18.24;43.07;100315.70;1778108;80;21297;-92
2022/04/24 09:09:53;;;;;;;4.47;2.98;;;;;;;18.25;43.07;100308.23;1778008;80;20893;-91
2022/04/24 09:12:32;;;;;;;4.58;3.30;;;;;;;18.26;43.09;100309.86;1777798;80;20973;-92
2022/04/24 09:14:59;;;;;;;5.45;3.30;;;;;;;18.25;43.09;100310.98;1778241;80;20957;-92
2022/04/24 09:17:30;;;;;;;4.00;2.85;;;;;;;18.25;43.09;100306.85;1777600;80;21134;-92
2022/04/24 09:19:57;;;;;;;4.60;3.22;;;;;;;18.25;43.10;100306.85;1778095;80;20921;-92
2022/04/24 09:22:23;;;;;;;4.42;3.30;;;;;;;18.25;43.10;100303.54;1777834;80;20976;-92
2022/04/24 09:24:56;;;;;;;3.67;3.10;;;;;;;18.25;43.10;100304.92;1777670;80;20932;-92
2022/04/24 09:27:34;;;;;;;4.92;3.20;;;;;;;18.26;43.08;100304.36;1758854;80;21338;-92
2022/04/24 09:30:13;;;;;;;5.30;2.75;;;;;;;18.25;43.10;100299.41;1777842;80;21292;-92
2022/04/24 09:32:47;;;;;;;5.22;3.10;;;;;;;18.25;43.10;100296.66;1778087;80;21334;-92
2022/04/24 09:35:32;;;;;;;4.22;3.60;;;;;;;18.26;43.08;100298.29;1777877;80;20889;-92
2022/04/24 09:38:13;;;;;;;3.25;2.70;;;;;;;18.26;43.09;100289.21;1778094;80;20945;-92
2022/04/24 09:40:47;;;;;;;4.30;3.37;;;;;;;18.26;43.10;100288.65;1778028;80;21721;-92
2022/04/24 09:43:15;;;;;;;3.72;2.92;;;;;;;18.25;43.11;100287.02;1778027;80;21035;-92
2022/04/24 09:45:44;;;;;;;4.67;3.00;;;;;;;18.25;43.09;100280.69;1777618;80;21258;-92
2022/04/24 09:48:13;;;;;;;5.50;3.25;;;;;;;18.26;43.12;100285.08;1777664;80;20838;-92
2022/04/24 09:50:39;;;;;;;5.33;3.58;;;;;;;18.26;43.12;100280.95;1777723;80;20995;-92
2022/04/24 09:53:06;;;;;;;5.70;2.98;;;;;;;18.27;43.16;100272.95;1778137;80;20850;-92
2022/04/24 09:55:32;;;;;;;4.10;3.00;;;;;;;18.27;43.14;100266.06;1777996;80;21254;-92
2022/04/24 09:57:58;;;;;;;3.72;3.08;;;;;;;18.27;43.16;100266.06;1778172;80;21425;-92
2022/04/24 10:00:25;;;;;;;4.28;2.80;;;;;;;18.27;43.15;100260.55;1777626;80;20850;-91
2022/04/24 10:02:52;;;;;;;4.45;3.20;;;;;;;18.28;43.14;100259.44;1778038;80;20886;-92
2022/04/24 10:05:18;;;;;;;4.33;2.72;;;;;;;18.28;43.15;100266.32;1777697;80;20956;-92
2022/04/24 10:07:46;;;;;;;4.80;3.02;;;;;;;18.28;43.15;100260.81;1777966;79;21146;-92
2022/04/24 10:10:14;;;;;;;3.35;2.95;;;;;;;18.29;43.15;100255.53;1778026;80;20826;-92
2022/04/24 10:12:43;;;;;;;4.55;3.47;;;;;;;18.29;43.17;100246.48;1777820;80;20928;-91
2022/04/24 10:15:12;;;;;;;4.58;3.02;;;;;;;18.29;43.17;100258.28;1773006;80;21243;-92
2022/04/24 10:17:59;;;;;;;4.50;2.95;;;;;;;18.29;43.18;100259.66;1773077;80;20960;-92
2022/04/24 10:20:59;;;;;;;4.28;3.12;;;;;;;18.30;43.18;100252.22;1772724;80;21153;-92
2022/04/24 10:23:29;;;;;;;3.80;2.93;;;;;;;18.30;43.18;100248.09;1773237;80;20933;-92
2022/04/24 10:25:55;;;;;;;3.22;2.77;;;;;;;18.29;43.17;100247.86;1760547;81;21298;-92
2022/04/24 10:28:22;;;;;;;3.60;2.87;;;;;;;18.29;43.18;100250.02;1772975;80;20846;-91
2022/04/24 10:30:59;;;;;;;3.62;2.77;;;;;;;18.30;43.18;100252.22;1773101;80;21488;-92
2022/04/24 10:33:30;;;;;;;3.85;2.75;;;;;;;18.29;43.22;100250.02;1766939;81;21150;-92
2022/04/24 10:36:12;;;;;;;4.37;2.80;;;;;;;18.29;43.23;100250.02;1772628;80;20897;-92
2022/04/24 10:38:57;;;;;;;5.50;3.20;;;;;;;18.30;43.25;100257.72;1772967;81;20964;-93
2022/04/24 10:41:25;;;;;;;3.85;2.90;;;;;;;18.30;43.27;100252.22;1772721;80;20891;-92
2022/04/24 10:43:57;;;;;;;3.87;3.15;;;;;;;18.30;43.27;100250.84;1755556;81;21344;-92
2022/04/24 10:46:28;;;;;;;4.42;2.95;;;;;;;18.30;43.30;100250.28;1772946;80;21587;-92
2022/04/24 10:49:08;;;;;;;3.62;2.80;;;;;;;18.31;43.32;100244.21;1772769;81;20968;-92
2022/04/24 10:51:35;;;;;;;3.77;2.83;;;;;;;18.30;43.31;100243.95;1757847;81;20862;-92
2022/04/24 10:54:08;;;;;;;3.35;2.67;;;;;;;18.30;43.34;100247.52;1772738;80;21468;-92
2022/04/24 10:56:36;;;;;;;4.10;2.85;;;;;;;18.31;43.33;100250.53;1773041;81;20901;-92
2022/04/24 10:59:13;;;;;;;4.15;2.77;;;;;;;18.31;43.37;100251.09;1772596;81;20990;-92
2022/04/24 11:01:45;;;;;;;3.80;2.92;;;;;;;18.32;43.37;100248.59;1772912;80;20881;-92
2022/04/24 11:04:14;;;;;;;2.92;2.42;;;;;;;18.32;43.40;100245.84;1772586;81;20861;-92
2022/04/24 11:06:53;;;;;;;3.00;2.70;;;;;;;18.32;43.42;100247.22;1773069;80;21371;-92
2022/04/24 11:09:19;;;;;;;3.45;2.55;;;;;;;18.32;43.43;100248.03;1770918;80;20917;-92
2022/04/24 11:11:50;;;;;;;3.95;2.77;;;;;;;18.32;43.42;100245.84;1772848;80;21341;-92
2022/04/24 11:14:20;;;;;;;3.75;2.90;;;;;;;18.33;43.44;100244.72;1775366;80;20897;-92
2022/04/24 11:16:56;;;;;;;3.92;3.00;;;;;;;18.33;43.46;100241.97;1778071;80;21408;-92
2022/04/24 11:19:31;;;;;;;3.50;2.90;;;;;;;18.32;43.46;100237.02;1777869;80;20854;-92
2022/04/24 11:21:59;;;;;;;3.95;2.80;;;;;;;18.33;43.46;100239.22;1777697;80;20925;-91
2022/04/24 11:24:29;;;;;;;3.37;2.65;;;;;;;18.33;43.44;100236.46;1778060;79;21267;-92
2022/04/24 11:26:57;;;;;;;3.70;2.65;;;;;;;18.33;43.43;100231.73;1778018;80;21377;-92
2022/04/24 11:29:23;;;;;;;4.65;3.10;;;;;;;18.33;43.44;100230.95;1758504;80;20889;-92